Sign-in with your pilot id or email, or register

ICAO: EGCC Name / Country: Manchester Airport / United Kingdom
Latitude: 53.3537 Longitude: -2.27495
Total Arrivals:
Strict Standards: Non-static method AirportData::getarrflights() should not be called statically, assuming $this from incompatible context in /var/www/customers/vh-7192/web/home/phpvms/core/templates/airport_info.tpl on line 18
1
Total Departures:
Strict Standards: Non-static method AirportData::getdeptflights() should not be called statically, assuming $this from incompatible context in /var/www/customers/vh-7192/web/home/phpvms/core/templates/airport_info.tpl on line 21
1
Latest Arrival: MTA11P (BIKF-EGCC) Tibor Berces Latest Departure: MTA11P (EGCC-LEMD) Tibor Berces
Metar: EGCC 172320Z AUTO VRB03KT 9999 NCD 08/07 Q1029 NOSIG
More info

Charts for EGCC


NOTAM


Warning: file_get_contents(http://api.vateud.net/notams/EGCC.json): failed to open stream: Redirection limit reached, aborting in /var/www/customers/vh-7192/web/home/phpvms/core/common/NOTAMSData.class.php on line 18

Warning: Invalid argument supplied for foreach() in /var/www/customers/vh-7192/web/home/phpvms/core/common/NOTAMSData.class.php on line 22

Manchester Airport